sensor_id;sensor_type;location;lat;lon;timestamp;pressure;altitude;pressure_sealevel;temperature;humidity
12073;BME280;6098;49.004;8.372;2023-12-04T00:13:56;100574.09;;;-0.89;81.56
12073;BME280;6098;49.004;8.372;2023-12-04T00:28:45;100531.97;;;-0.94;81.79
12073;BME280;6098;49.004;8.372;2023-12-04T00:43:35;100517.05;;;-1.11;82.53
12073;BME280;6098;49.004;8.372;2023-12-04T00:58:26;100482.23;;;-1.25;82.52
12073;BME280;6098;49.004;8.372;2023-12-04T01:13:15;100489.39;;;-1.45;82.37
12073;BME280;6098;49.004;8.372;2023-12-04T01:28:05;100478.83;;;-1.60;82.93
12073;BME280;6098;49.004;8.372;2023-12-04T01:42:56;100466.39;;;-1.50;81.65
12073;BME280;6098;49.004;8.372;2023-12-04T01:58:02;100439.98;;;-1.48;81.06
12073;BME280;6098;49.004;8.372;2023-12-04T02:12:54;100430.33;;;-1.60;81.44
12073;BME280;6098;49.004;8.372;2023-12-04T02:27:52;100423.02;;;-1.52;80.68
12073;BME280;6098;49.004;8.372;2023-12-04T02:42:46;100399.36;;;-1.35;79.85
12073;BME280;6098;49.004;8.372;2023-12-04T02:57:36;100342.78;;;-1.63;81.49
12073;BME280;6098;49.004;8.372;2023-12-04T03:12:41;100318.66;;;-1.51;80.55
12073;BME280;6098;49.004;8.372;2023-12-04T03:27:28;100304.46;;;-1.39;79.68
12073;BME280;6098;49.004;8.372;2023-12-04T03:42:17;100318.27;;;-1.42;80.71
12073;BME280;6098;49.004;8.372;2023-12-04T03:57:07;100332.09;;;-1.49;79.82
12073;BME280;6098;49.004;8.372;2023-12-04T04:11:58;100338.20;;;-1.46;80.65
12073;BME280;6098;49.004;8.372;2023-12-04T04:26:48;100318.07;;;-1.69;81.55
12073;BME280;6098;49.004;8.372;2023-12-04T04:41:37;100326.66;;;-1.74;83.04
12073;BME280;6098;49.004;8.372;2023-12-04T04:56:27;100312.61;;;-1.96;84.14
12073;BME280;6098;49.004;8.372;2023-12-04T05:11:18;100315.25;;;-1.89;84.65
12073;BME280;6098;49.004;8.372;2023-12-04T05:26:08;100302.63;;;-1.98;85.85
12073;BME280;6098;49.004;8.372;2023-12-04T05:40:58;100278.48;;;-1.88;86.50
12073;BME280;6098;49.004;8.372;2023-12-04T05:55:48;100247.33;;;-1.85;87.22
12073;BME280;6098;49.004;8.372;2023-12-04T06:10:39;100238.43;;;-1.61;86.55
12073;BME280;6098;49.004;8.372;2023-12-04T06:25:30;100230.72;;;-1.50;87.28
12073;BME280;6098;49.004;8.372;2023-12-04T06:40:22;100178.03;;;-1.26;86.64
12073;BME280;6098;49.004;8.372;2023-12-04T06:55:13;100157.28;;;-1.15;86.92
12073;BME280;6098;49.004;8.372;2023-12-04T07:10:06;100152.99;;;-0.99;85.70
12073;BME280;6098;49.004;8.372;2023-12-04T07:24:57;100152.23;;;-0.73;84.09
12073;BME280;6098;49.004;8.372;2023-12-04T07:39:48;100150.11;;;-0.44;83.03
12073;BME280;6098;49.004;8.372;2023-12-04T07:54:40;100108.02;;;-0.45;83.05
12073;BME280;6098;49.004;8.372;2023-12-04T08:09:30;100127.97;;;-0.61;82.40
12073;BME280;6098;49.004;8.372;2023-12-04T08:24:21;100103.67;;;-0.53;81.67
12073;BME280;6098;49.004;8.372;2023-12-04T08:39:11;100104.13;;;-0.45;80.24
12073;BME280;6098;49.004;8.372;2023-12-04T08:54:01;100081.14;;;-0.36;80.67
12073;BME280;6098;49.004;8.372;2023-12-04T09:08:51;100084.59;;;-0.22;80.14
12073;BME280;6098;49.004;8.372;2023-12-04T09:23:41;100129.31;;;-0.16;79.51
12073;BME280;6098;49.004;8.372;2023-12-04T09:38:33;100103.26;;;-0.03;79.47
12073;BME280;6098;49.004;8.372;2023-12-04T09:53:22;100111.05;;;0.23;78.55
12073;BME280;6098;49.004;8.372;2023-12-04T10:08:13;100099.28;;;0.36;78.62
12073;BME280;6098;49.004;8.372;2023-12-04T10:23:14;100060.59;;;0.48;79.67
12073;BME280;6098;49.004;8.372;2023-12-04T10:38:06;100022.75;;;0.53;79.72
12073;BME280;6098;49.004;8.372;2023-12-04T10:52:56;99993.20;;;0.51;80.98
12073;BME280;6098;49.004;8.372;2023-12-04T11:07:59;99985.75;;;0.66;82.56
12073;BME280;6098;49.004;8.372;2023-12-04T11:22:56;99943.49;;;0.82;82.72
12073;BME280;6098;49.004;8.372;2023-12-04T11:37:47;99895.17;;;0.89;82.67
12073;BME280;6098;49.004;8.372;2023-12-04T11:52:38;99879.75;;;1.11;82.71
12073;BME280;6098;49.004;8.372;2023-12-04T12:07:29;99851.34;;;1.26;82.80
12073;BME280;6098;49.004;8.372;2023-12-04T12:22:19;99818.30;;;1.24;84.55
12073;BME280;6098;49.004;8.372;2023-12-04T12:37:09;99785.17;;;1.30;85.80
12073;BME280;6098;49.004;8.372;2023-12-04T12:52:01;99751.66;;;1.30;86.92
12073;BME280;6098;49.004;8.372;2023-12-04T13:06:51;99728.47;;;1.42;88.52
12073;BME280;6098;49.004;8.372;2023-12-04T13:21:41;99695.83;;;1.41;89.95
12073;BME280;6098;49.004;8.372;2023-12-04T13:36:31;99664.50;;;1.41;89.51
12073;BME280;6098;49.004;8.372;2023-12-04T13:51:21;99638.45;;;1.39;91.18
12073;BME280;6098;49.004;8.372;2023-12-04T14:06:11;99606.55;;;1.48;92.50
12073;BME280;6098;49.004;8.372;2023-12-04T14:21:01;99574.04;;;1.65;93.12
12073;BME280;6098;49.004;8.372;2023-12-04T14:35:52;99544.00;;;1.66;94.34
12073;BME280;6098;49.004;8.372;2023-12-04T14:50:42;99530.75;;;1.78;94.79
12073;BME280;6098;49.004;8.372;2023-12-04T15:05:34;99503.19;;;1.84;95.44
12073;BME280;6098;49.004;8.372;2023-12-04T15:20:34;99484.36;;;1.91;95.93
12073;BME280;6098;49.004;8.372;2023-12-04T15:35:25;99465.13;;;1.94;96.81
12073;BME280;6098;49.004;8.372;2023-12-04T15:50:19;99445.82;;;2.02;97.20
12073;BME280;6098;49.004;8.372;2023-12-04T16:05:11;99447.41;;;2.10;97.36
12073;BME280;6098;49.004;8.372;2023-12-04T16:20:03;99427.19;;;2.19;97.05
12073;BME280;6098;49.004;8.372;2023-12-04T16:34:53;99411.46;;;2.20;97.31
12073;BME280;6098;49.004;8.372;2023-12-04T16:49:44;99409.95;;;2.10;97.44
12073;BME280;6098;49.004;8.372;2023-12-04T17:04:35;99409.59;;;2.07;97.57
12073;BME280;6098;49.004;8.372;2023-12-04T17:19:26;99384.84;;;2.01;97.78
12073;BME280;6098;49.004;8.372;2023-12-04T17:34:16;99364.25;;;2.08;98.66
12073;BME280;6098;49.004;8.372;2023-12-04T17:49:07;99343.26;;;2.12;98.42
12073;BME280;6098;49.004;8.372;2023-12-04T18:03:58;99327.62;;;2.10;98.46
12073;BME280;6098;49.004;8.372;2023-12-04T18:18:49;99304.72;;;2.20;98.88
12073;BME280;6098;49.004;8.372;2023-12-04T18:33:41;99288.51;;;2.25;99.14
12073;BME280;6098;49.004;8.372;2023-12-04T18:48:31;99292.91;;;2.22;98.65
12073;BME280;6098;49.004;8.372;2023-12-04T19:03:19;99296.52;;;2.17;98.92
12073;BME280;6098;49.004;8.372;2023-12-04T19:18:11;99300.01;;;2.17;99.22
12073;BME280;6098;49.004;8.372;2023-12-04T19:33:04;99285.88;;;2.06;99.23
12073;BME280;6098;49.004;8.372;2023-12-04T19:47:55;99281.66;;;2.01;100.00
12073;BME280;6098;49.004;8.372;2023-12-04T20:02:45;99243.38;;;1.98;100.00
12073;BME280;6098;49.004;8.372;2023-12-04T20:17:36;99237.32;;;1.96;100.00
12073;BME280;6098;49.004;8.372;2023-12-04T20:32:28;99209.80;;;2.00;100.00
12073;BME280;6098;49.004;8.372;2023-12-04T20:47:18;99204.00;;;2.06;100.00
12073;BME280;6098;49.004;8.372;2023-12-04T21:02:09;99202.13;;;2.11;100.00
12073;BME280;6098;49.004;8.372;2023-12-04T21:16:59;99193.80;;;2.13;100.00
12073;BME280;6098;49.004;8.372;2023-12-04T21:31:51;99192.84;;;2.17;100.00
12073;BME280;6098;49.004;8.372;2023-12-04T21:46:42;99186.61;;;2.22;100.00
12073;BME280;6098;49.004;8.372;2023-12-04T22:01:33;99180.45;;;2.25;100.00
12073;BME280;6098;49.004;8.372;2023-12-04T22:16:24;99178.58;;;2.30;100.00
12073;BME280;6098;49.004;8.372;2023-12-04T22:31:15;99165.31;;;2.37;100.00
12073;BME280;6098;49.004;8.372;2023-12-04T22:46:07;99151.66;;;2.43;100.00
12073;BME280;6098;49.004;8.372;2023-12-04T23:00:58;99150.39;;;2.58;100.00
12073;BME280;6098;49.004;8.372;2023-12-04T23:15:49;99162.40;;;2.66;100.00
12073;BME280;6098;49.004;8.372;2023-12-04T23:30:39;99162.34;;;2.68;100.00
12073;BME280;6098;49.004;8.372;2023-12-04T23:45:45;99147.36;;;2.74;100.00
